Sunday, December 17, 2017, 2:38 PM EST
Back to Local

KPHD, New Philadelphia Clever Fld

Location: New Philadelphia, OH, United States Lat: 40.467
Local Time: 2:38 PM EST (19:38 GMT) Lon: -81.417
Time Zone: US/Eastern Elev: 895 ft

Show me the last for .
Show Coded

Time T Td Feel RH Dir Speed Gust Alt SLP Vis Weather Sky Remarks
2017-12-17 13:53 39 30 - 69 - Calm - 30.11 30.14 10 BKN080 OVC100 None
2017-12-17 12:53 38 30 34 72 150° 5 - 30.14 30.16 10 BKN110 6-hr Min Temp (1pm): 26.1°F
6-hr Max Temp (1pm): 37.9°F
2017-12-17 11:53 37 29 32 72 140° 6 - 30.16 30.19 10 CLR None
2017-12-17 10:53 34 29 29 81 130° 6 - 30.20 30.23 10 CLR None
2017-12-17 09:53 31 28 27 88 100° 3 - 30.23 30.26 9 CLR None
2017-12-17 08:53 29 26 25 88 170° 3 - 30.20 30.24 8 CLR None
2017-12-17 07:53 27 25 22 92 120° 5 - 30.20 30.23 9 CLR None
2017-12-17 06:53 26 24 21 92 120° 5 - 30.19 30.22 9 CLR 6-hr Min Temp (7am): 24.1°F
6-hr Max Temp (7am): 28.0°F
2017-12-17 05:53 25 22 - 87 - Calm - 30.19 30.22 10 CLR None
2017-12-17 04:53 26 23 - 87 - Calm - 30.18 30.21 10 CLR None
2017-12-17 03:53 25 23 - 92 - Calm - 30.17 30.19 8 CLR None
2017-12-17 02:53 26 23 21 87 120° 5 - 30.19 30.21 9 CLR None
2017-12-17 01:53 26 23 21 87 120° 5 - 30.17 30.20 10 CLR None
2017-12-17 00:53 26 23 21 87 120° 5 - 30.17 30.20 9 CLR 6-hr Min Temp (1am): 25.0°F
6-hr Max Temp (1am): 30.9°F
2017-12-16 23:53 27 24 22 88 120° 5 - 30.16 30.19 10 CLR 24-hr Min Temp (12am): 27.0°F
24-hr Max Temp (12am): 45.0°F
2017-12-16 22:53 28 24 23 84 140° 5 - 30.15 30.17 10 CLR None
2017-12-16 21:53 27 24 23 88 120° 3 - 30.14 30.16 10 CLR None
2017-12-16 20:53 28 24 24 84 110° 3 - 30.12 30.15 10 CLR None
2017-12-16 19:53 28 24 - 84 - Calm - 30.12 30.15 10 CLR None
2017-12-16 18:53 30 25 26 81 120° 3 - 30.10 30.13 10 CLR 6-hr Min Temp (7pm): 30.0°F
6-hr Max Temp (7pm): 45.0°F
2017-12-16 17:53 35 27 - 72 - Calm - 30.08 30.10 10 CLR None
2017-12-16 16:53 42 26 40 52 210° 3 - 30.04 30.06 10 CLR None
2017-12-16 15:53 44 27 41 50 230° 6 - 30.03 30.05 10 CLR None
2017-12-16 14:53 45 27 37 48 210° 9 20 30.01 30.03 10 CLR None

Support USWX by starting your Amazon purchase here.